Data for 10/01/2007

Time Sea-Level Adjusted Pressure Absolute Pressure Temperature Relative Humidity Dew Point   
(mb) (inHg) (mb) (inHg) (C) (F) (%) (C) (F)
00:05 1016 30 845 24.95 9.6 49.3 36 -4.6 23.7
00:10 1016 30 845 24.95 9.6 49.3 31 -6.6 20.1
00:15 1016 30 845 24.95 10.2 50.4 35 -4.4 24.1
00:20 1016 30 845 24.95 9.9 49.9 36 -4.5 23.9
00:25 1015 29.97 845 24.95 9.8 49.6 34 -5.3 22.4
00:30 1016 30 845 24.95 10.1 50.2 34 -5.2 22.6
00:35 1015 29.97 845 24.95 10.2 50.3 33 -5.4 22.3
00:40 1015 29.97 845 24.95 10.2 50.3 34 -5.2 22.7
00:45 1015 29.97 845 24.95 10.1 50.2 30 -6.7 20
00:50 1015 29.97 845 24.95 10.5 50.9 32 -5.4 22.3
00:55 1015 29.97 844 24.92 10.5 50.9 32 -5.6 21.8
01:00 1015 29.97 844 24.92 10.5 50.8 33 -5 23.1
01:05 1015 29.97 844 24.92 10 50 34 -5.1 22.8
01:10 1015 29.97 844 24.92 10 50.1 34 -5.2 22.7
01:15 1015 29.97 844 24.92 10 50 33 -5.5 22.1
01:20 1015 29.97 844 24.92 10.1 50.2 33 -5.6 22
01:25 1015 29.97 844 24.92 10.3 50.5 29 -7.1 19.2
01:30 1015 29.97 844 24.92 10.8 51.4 30 -6.2 20.9
01:35 1015 29.97 844 24.92 10.7 51.3 30 -5.9 21.3
01:40 1015 29.97 844 24.92 10.5 50.9 30 -6.4 20.5
01:45 1015 29.97 844 24.92 10.5 50.9 30 -6.2 20.9
01:50 1015 29.97 844 24.92 10.3 50.6 31 -6.1 21
01:55 1015 29.97 844 24.92 10.5 50.8 32 -5.6 21.8
02:00 1015 29.97 844 24.92 10.7 51.2 30 -6.1 21
02:05 1015 29.97 844 24.92 11 51.8 27 -7.2 19
02:10 1015 29.97 844 24.92 11.6 52.9 31 -4.8 23.3
02:15 1015 29.97 844 24.92 10.1 50.1 40 -3 26.6
02:20 1015 29.97 844 24.92 8.4 47.1 41 -4.3 24.3
02:25 1015 29.97 844 24.92 8.1 46.5 40 -4.8 23.3
02:30 1015 29.97 844 24.92 8.1 46.6 39 -5 23
02:35 1015 29.97 844 24.92 8 46.5 40 -4.7 23.6
02:40 1015 29.97 844 24.92 7.8 46.1 42 -4.1 24.6
02:45 1015 29.97 844 24.92 7.6 45.7 40 -5.2 22.6
02:50 1015 29.97 844 24.92 7.9 46.3 42 -4.2 24.4
02:55 1015 29.97 844 24.92 7.8 46.1 42 -4.2 24.4
03:00 1015 29.97 844 24.92 8.2 46.8 41 -4.1 24.5
03:05 1015 29.97 844 24.92 8.1 46.6 39 -4.9 23.2
03:10 1015 29.97 844 24.92 8.3 47 35 -6.1 20.9
03:15 1015 29.97 844 24.92 8.6 47.5 35 -5.8 21.5
03:20 1015 29.97 844 24.92 8.8 47.9 38 -4.8 23.4
03:25 1015 29.97 844 24.92 8.3 46.9 37 -5.4 22.3
03:30 1014 29.94 844 24.92 8.2 46.7 35 -6.4 20.5
03:35 1014 29.94 844 24.92 8.6 47.5 36 -5.6 22
03:40 1014 29.94 843 24.89 8.3 46.9 39 -4.9 23.3
03:45 1014 29.94 843 24.89 8 46.3 38 -5.3 22.4
03:50 1014 29.94 843 24.89 8 46.4 40 -4.7 23.6
03:55 1014 29.94 843 24.89 8 46.3 38 -5.4 22.3
04:00 1014 29.94 843 24.89 8.2 46.8 39 -5 23
04:05 1014 29.94 843 24.89 8.1 46.6 39 -5.2 22.7
04:10 1014 29.94 843 24.89 8.2 46.8 37 -5.5 22.1
04:15 1014 29.94 843 24.89 8.5 47.3 36 -5.9 21.4
04:20 1013 29.91 843 24.89 9.1 48.4 32 -6.6 20.2
04:25 1013 29.91 843 24.89 10 49.9 33 -5.7 21.8
04:30 1013 29.91 843 24.89 9.6 49.2 34 -5.5 22.1
04:35 1013 29.91 842 24.86 9.2 48.5 34 -5.7 21.7
04:40 1013 29.91 842 24.86 9.2 48.5 34 -5.7 21.7
04:45 1013 29.91 842 24.86 9.2 48.6 34 -5.7 21.8
04:50 1013 29.91 842 24.86 9.3 48.7 34 -5.8 21.5
04:55 1013 29.91 842 24.86 9.3 48.7 34 -5.8 21.6
05:00 1013 29.91 842 24.86 9.3 48.7 34 -5.6 21.9
05:05 1013 29.91 842 24.86 9.2 48.6 34 -5.7 21.8
05:10 1013 29.91 842 24.86 9.3 48.7 34 -5.9 21.5
05:15 1013 29.91 842 24.86 9.5 49.1 33 -5.9 21.4
05:20 1013 29.91 842 24.86 9.5 49.2 33 -5.8 21.5
05:25 1013 29.91 842 24.86 9.6 49.3 32 -6.2 20.8
05:30 1013 29.91 842 24.86 9.8 49.6 32 -6.3 20.7
05:35 1013 29.91 842 24.86 10 50.1 31 -6.1 21
05:40 1013 29.91 842 24.86 10.1 50.2 31 -6.3 20.7
05:45 1013 29.91 842 24.86 10.2 50.4 31 -6.2 20.8
05:50 1013 29.91 842 24.86 10.2 50.4 31 -6.1 21
05:55 1013 29.91 842 24.86 10.1 50.2 32 -5.8 21.5
06:00 1013 29.91 842 24.86 10 50 31 -6.2 20.8
06:05 1013 29.91 842 24.86 10.1 50.2 31 -6.1 21
06:10 1013 29.91 842 24.86 10.2 50.3 32 -5.9 21.4
06:15 1013 29.91 842 24.86 9.8 49.7 33 -5.6 22
06:20 1013 29.91 842 24.86 9.3 48.8 35 -5.4 22.3
06:25 1013 29.91 842 24.86 9.2 48.6 34 -6 21.3
06:30 1013 29.91 842 24.86 9.2 48.5 34 -5.8 21.5
06:35 1013 29.91 842 24.86 9.2 48.6 33 -6.1 21.1
06:40 1013 29.91 842 24.86 9.3 48.7 37 -4.6 23.7
06:45 1013 29.91 842 24.86 8.3 47 39 -4.7 23.5
06:50 1013 29.91 842 24.86 8.3 46.9 36 -5.9 21.3
06:55 1013 29.91 842 24.86 8.8 47.9 33 -6.6 20.1
07:00 1012 29.88 842 24.86 9.3 48.8 35 -5.2 22.6
07:05 1012 29.88 842 24.86 9.5 49.1 31 -6.6 20.1
07:10 1012 29.88 842 24.86 9.9 49.7 30 -6.7 19.9
07:15 1012 29.88 841 24.83 10.9 51.6 27 -7.1 19.1
07:20 1012 29.88 842 24.86 11.1 52 29 -6.1 21.1
07:25 1012 29.88 842 24.86 10.7 51.3 30 -6 21.2
07:30 1012 29.88 842 24.86 10.3 50.5 33 -5.4 22.3
07:35 1012 29.88 842 24.86 9.4 48.9 35 -5.2 22.6
07:40 1012 29.88 842 24.86 9.1 48.3 34 -5.9 21.4
07:45 1013 29.91 842 24.86 9 48.2 35 -5.7 21.7
07:50 1013 29.91 842 24.86 9.3 48.7 33 -6.1 21
07:55 1012 29.88 842 24.86 9.2 48.6 35 -5.4 22.2
08:00 1013 29.91 842 24.86 9 48.1 35 -5.7 21.7
08:05 1013 29.91 842 24.86 9.3 48.7 33 -6.1 21
08:10 1012 29.88 842 24.86 9.7 49.4 35 -5.2 22.7
08:15 1013 29.91 842 24.86 9.3 48.7 35 -5.2 22.6
08:20 1013 29.91 842 24.86 9.4 48.9 36 -5.1 22.8
08:25 1013 29.91 842 24.86 9.8 49.7 36 -4.6 23.8
08:30 1013 29.91 842 24.86 9.6 49.2 39 -3.8 25.1
08:35 1013 29.91 842 24.86 9.4 48.9 39 -4 24.8
08:40 1013 29.91 842 24.86 9.8 49.6 38 -4 24.8
08:45 1013 29.91 842 24.86 10.3 50.5 34 -5 23
08:50 1013 29.91 842 24.86 10.7 51.2 36 -3.9 25
08:55 1013 29.91 843 24.89 11.2 52.2 33 -4.5 23.9
09:00 1013 29.91 843 24.89 11.4 52.5 34 -3.8 25.2
09:05 1013 29.91 843 24.89 11.7 53.1 34 -3.7 25.3
09:10 1014 29.94 843 24.89 11.8 53.3 35 -3 26.5
09:15 1014 29.94 843 24.89 12 53.7 35 -2.8 26.9
09:20 1014 29.94 843 24.89 12.1 53.8 34 -3.3 26
09:25 1013 29.91 843 24.89 12 53.5 34 -3.4 25.9
09:30 1014 29.94 843 24.89 12 53.5 33 -3.6 25.5
09:35 1014 29.94 843 24.89 12.3 54.2 32 -3.7 25.3
09:40 1014 29.94 843 24.89 12.4 54.4 33 -3.2 26.2
09:45 1014 29.94 843 24.89 12.2 54 33 -3.6 25.6
09:50 1014 29.94 843 24.89 12.1 53.7 33 -3.5 25.6
09:55 1014 29.94 843 24.89 12.3 54.1 32 -3.8 25.2
10:00 1014 29.94 843 24.89 12.9 55.1 31 -3.6 25.5
10:05 1014 29.94 843 24.89 13.4 56.1 30 -3.8 25.2
10:10 1014 29.94 843 24.89 13.6 56.4 31 -3.4 25.9
10:15 1014 29.94 843 24.89 13.8 56.8 33 -2 28.3
10:20 1014 29.94 843 24.89 13.7 56.6 34 -1.8 28.8
10:25 1014 29.94 843 24.89 14 57.2 33 -2.1 28.2
10:30 1014 29.94 843 24.89 14.4 57.9 30 -2.7 27.2
10:35 1014 29.94 843 24.89 14.6 58.2 30 -2.6 27.3
10:40 1014 29.94 843 24.89 14.6 58.3 30 -2.6 27.3
10:45 1014 29.94 843 24.89 15.3 59.5 27 -3.6 25.5
10:50 1013 29.91 843 24.89 15.9 60.6 23 -5 23
10:55 1013 29.91 843 24.89 16.1 61 24 -4.6 23.7
11:00 1013 29.91 843 24.89 16.3 61.4 22 -5.5 22.1
11:05 1013 29.91 843 24.89 16.9 62.3 20 -6.2 20.9
11:10 1013 29.91 842 24.86 17.3 63.1 20 -6.1 21.1
11:15 1013 29.91 842 24.86 17.8 64 21 -4.8 23.3
11:20 1013 29.91 843 24.89 18 64.5 20 -5 23
11:25 1013 29.91 843 24.89 18 64.5 20 -4.8 23.3
11:30 1013 29.91 843 24.89 18.2 64.8 22 -4 24.8
11:35 1013 29.91 843 24.89 17.9 64.3 21 -4.7 23.5
11:40 1013 29.91 843 24.89 17.5 63.5 23 -3.6 25.6
11:45 1013 29.91 843 24.89 17.4 63.2 23 -3.7 25.4
11:50 1013 29.91 843 24.89 17.2 63 23 -3.9 25
11:55 1013 29.91 843 24.89 16.7 62 24 -4 24.7
12:00 1013 29.91 843 24.89 16.7 62.1 25 -3.5 25.6
12:05 1013 29.91 842 24.86 16.1 60.9 24 -4.4 24.1
12:10 1013 29.91 842 24.86 15.9 60.5 24 -4.5 23.9
12:15 1013 29.91 843 24.89 16.5 61.6 23 -4.7 23.6
12:20 1013 29.91 842 24.86 16.8 62.2 24 -3.8 25.2
12:25 1013 29.91 842 24.86 17.3 63.2 25 -2.7 27.2
12:30 1013 29.91 843 24.89 18.3 64.9 21 -4.1 24.6
12:35 1013 29.91 843 24.89 18.4 65 18 -6.2 20.8
12:40 1013 29.91 843 24.89 17.9 64.2 19 -6.1 21
12:45 1013 29.91 843 24.89 17.5 63.5 18 -6.7 19.9
12:50 1013 29.91 842 24.86 17.3 63.1 19 -6.2 20.8
12:55 1013 29.91 843 24.89 17.8 64.1 19 -5.9 21.3
13:00 1013 29.91 843 24.89 17.5 63.5 19 -6.3 20.7
13:05 1013 29.91 843 24.89 17.2 62.9 21 -5.5 22.1
13:10 1013 29.91 843 24.89 17 62.6 22 -4.6 23.7
13:15 1013 29.91 843 24.89 16.3 61.4 24 -4.5 24
13:20 1013 29.91 843 24.89 15.7 60.2 26 -3.9 25
13:25 1014 29.94 843 24.89 15.5 59.9 28 -3.1 26.4
13:30 1014 29.94 843 24.89 15.3 59.6 27 -3.5 25.7
13:35 1014 29.94 843 24.89 15.2 59.3 27 -3.4 25.9
13:40 1014 29.94 843 24.89 15.1 59.1 27 -3.5 25.7
13:45 1014 29.94 843 24.89 15.1 59.1 28 -3.1 26.3
13:50 1014 29.94 843 24.89 15 59.1 28 -3.1 26.4
13:55 1014 29.94 843 24.89 14.8 58.7 30 -2.6 27.2
14:00 1014 29.94 843 24.89 14.5 58 32 -2.1 28.2
14:05 1014 29.94 843 24.89 14.1 57.3 33 -1.9 28.6
14:10 1014 29.94 843 24.89 13.9 57 33 -2 28.4
14:15 1014 29.94 843 24.89 14 57.2 34 -1.7 29
14:20 1014 29.94 843 24.89 13.9 57 34 -1.5 29.4
14:25 1014 29.94 843 24.89 13.3 56 37 -1 30.2
14:30 1014 29.94 843 24.89 13.2 55.8 36 -1.6 29.1
14:35 1014 29.94 843 24.89 13.3 56 33 -2.4 27.7
14:40 1014 29.94 843 24.89 13.4 56.2 34 -2.3 27.9
14:45 1014 29.94 843 24.89 13.4 56.1 35 -1.8 28.7
14:50 1014 29.94 843 24.89 13.4 56.1 34 -2.1 28.3
14:55 1014 29.94 843 24.89 13.3 55.9 36 -1.5 29.4
15:00 1014 29.94 844 24.92 12.9 55.1 40 -0.5 31.1
15:05 1014 29.94 844 24.92 12.7 54.8 39 -0.9 30.4
15:10 1014 29.94 844 24.92 12.6 54.6 39 -0.8 30.5
15:15 1014 29.94 844 24.92 12.5 54.5 41 -0.2 31.7
15:20 1014 29.94 844 24.92 12.6 54.7 40 -0.6 30.9
15:25 1014 29.94 844 24.92 12.8 55 41 -0.1 31.7
15:30 1014 29.94 844 24.92 12.5 54.6 43 0.4 32.6
15:35 1014 29.94 844 24.92 12.3 54.1 44 0.4 32.8
15:40 1015 29.97 844 24.92 12 53.6 45 0.4 32.7
15:45 1015 29.97 844 24.92 11.9 53.4 46 0.6 33.1
15:50 1015 29.97 844 24.92 11.8 53.2 46 0.7 33.3
15:55 1015 29.97 844 24.92 11.6 52.9 47 0.7 33.2
16:00 1015 29.97 844 24.92 11.5 52.7 48 1 33.9
16:05 1015 29.97 844 24.92 11.5 52.6 49 1.2 34.1
16:10 1015 29.97 844 24.92 11.4 52.4 49 1.2 34.1
16:15 1015 29.97 844 24.92 11.4 52.4 50 1.3 34.3
16:20 1015 29.97 844 24.92 11.2 52.1 50 1.3 34.3
16:25 1015 29.97 844 24.92 11 51.8 50 1.2 34.1
16:30 1015 29.97 844 24.92 11 51.9 50 1 33.9
16:35 1015 29.97 844 24.92 11 51.7 52 1.4 34.6
16:40 1015 29.97 844 24.92 10.8 51.4 52 1.5 34.6
16:45 1015 29.97 844 24.92 10.8 51.4 52 1.3 34.4
16:50 1015 29.97 844 24.92 10.8 51.4 53 1.5 34.8
16:55 1015 29.97 844 24.92 10.7 51.2 52 1.4 34.4
17:00 1015 29.97 844 24.92 10.6 51.1 53 1.5 34.7
17:05 1015 29.97 844 24.92 10.5 50.9 54 1.7 35
17:10 1015 29.97 844 24.92 10.4 50.8 55 1.7 35.1
17:15 1015 29.97 845 24.95 10.4 50.8 55 1.8 35.2
17:20 1015 29.97 845 24.95 10.5 50.8 56 2 35.6
17:25 1015 29.97 845 24.95 10.2 50.4 66 4.1 39.4
17:30 1015 29.97 845 24.95 9.7 49.5 66 3.8 38.8
17:35 1016 30 845 24.95 9.6 49.2 66 3.6 38.4
17:40 1016 30 845 24.95 9.4 48.9 68 3.9 39
17:45 1016 30 845 24.95 9.2 48.5 74 4.8 40.6
17:50 1016 30 845 24.95 8.7 47.6 81 5.6 42.2
17:55 1016 30 845 24.95 7.7 45.8 89 5.9 42.7
18:00 1016 30 845 24.95 7.1 44.8 89 5.4 41.7
18:05 1016 30 846 24.98 6.9 44.4 90 5.3 41.6
18:10 1016 30 846 24.98 6.6 43.9 89 5 41
18:15 1017 30.03 846 24.98 5.9 42.7 89 4.2 39.6
18:20 1017 30.03 846 24.98 5.5 41.9 89 3.8 38.9
18:25 1017 30.03 846 24.98 5.3 41.6 90 3.9 38.9
18:30 1017 30.03 846 24.98 5.3 41.5 89 3.6 38.6
18:35 1017 30.03 846 24.98 5.2 41.3 90 3.7 38.7
18:40 1017 30.03 846 24.98 5.1 41.2 89 3.5 38.3
18:45 1017 30.03 847 25.01 5.1 41.2 91 3.8 38.8
18:50 1018 30.06 847 25.01 5.1 41.2 91 3.8 38.9
18:55 1018 30.06 847 25.01 5.2 41.3 92 3.9 39.1
19:00 1018 30.06 847 25.01 5.2 41.3 89 3.6 38.4
19:05 1018 30.06 847 25.01 4.9 40.8 83 2.3 36.2
19:10 1019 30.09 848 25.04 3.3 37.9 92 2.1 35.8
19:15 1019 30.09 848 25.04 2.9 37.2 93 1.9 35.4
19:20 1019 30.09 848 25.04 2.9 37.3 94 2.1 35.8
19:25 1019 30.09 848 25.04 3.1 37.6 94 2.1 35.9
19:30 1019 30.09 848 25.04 3.3 37.9 92 2.1 35.7
19:35 1019 30.09 848 25.04 3.4 38.1 92 2.2 36
19:40 1019 30.09 848 25.04 3.6 38.5 89 2 35.6
19:45 1019 30.09 848 25.04 3.6 38.4 90 2.1 35.8
19:50 1019 30.09 848 25.04 3.6 38.4 90 2.1 35.8
19:55 1019 30.09 848 25.04 3.3 38 92 2.2 35.9
20:00 1019 30.09 848 25.04 2.8 37 92 1.5 34.8
20:05 1019 30.09 848 25.04 2 35.5 94 1.1 34
20:10 1019 30.09 848 25.04 1.7 35.1 95 1 33.8
20:15 1019 30.09 848 25.04 1.9 35.4 93 0.9 33.7
20:20 1019 30.09 848 25.04 2.1 35.8 93 1 33.9
20:25 1019 30.09 848 25.04 2.3 36.1 92 1.1 33.9
20:30 1019 30.09 849 25.07 2.6 36.7 89 1.1 33.9
20:35 1019 30.09 849 25.07 3.1 37.6 86 1 33.8
20:40 1019 30.09 848 25.04 3.7 38.6 84 1.2 34.2
20:45 1019 30.09 848 25.04 4 39.2 82 1.1 34
20:50 1019 30.09 848 25.04 3.9 39.1 79 0.6 33.1
20:55 1019 30.09 848 25.04 3.9 39 81 0.9 33.6
21:00 1019 30.09 848 25.04 4.1 39.4 76 0.2 32.4
21:05 1019 30.09 848 25.04 4.5 40.1 76 0.6 33.2
21:10 1019 30.09 848 25.04 4.6 40.2 74 0.4 32.7
21:15 1019 30.09 848 25.04 4.7 40.4 74 0.5 32.9
21:20 1019 30.09 848 25.04 4.7 40.5 73 0.2 32.4
21:25 1019 30.09 848 25.04 4.9 40.8 72 0.3 32.6
21:30 1019 30.09 848 25.04 4.8 40.7 73 0.5 32.9
21:35 1019 30.09 848 25.04 4.8 40.7 73 0.3 32.6
21:40 1019 30.09 848 25.04 4.9 40.8 73 0.5 32.9
21:45 1019 30.09 848 25.04 4.8 40.7 73 0.4 32.8
21:50 1019 30.09 848 25.04 4.9 40.7 74 0.6 33
21:55 1019 30.09 849 25.07 4.8 40.6 74 0.5 32.9
22:00 1019 30.09 849 25.07 4.6 40.2 76 0.7 33.3
22:05 1019 30.09 849 25.07 4.4 39.9 77 0.7 33.3
22:10 1019 30.09 849 25.07 4.4 39.9 77 0.6 33.1
22:15 1020 30.12 849 25.07 4.4 39.9 78 0.8 33.5
22:20 1020 30.12 849 25.07 4.4 39.8 77 0.6 33.1
22:25 1020 30.12 849 25.07 4.4 39.9 76 0.5 32.8
22:30 1020 30.12 849 25.07 4.4 39.9 76 0.6 33.1
22:35 1020 30.12 849 25.07 4.3 39.7 77 0.6 33.2
22:40 1020 30.12 849 25.07 4.3 39.7 76 0.4 32.8
22:45 1020 30.12 849 25.07 4.3 39.8 76 0.4 32.7
22:50 1020 30.12 849 25.07 4.4 39.8 76 0.4 32.8
22:55 1020 30.12 849 25.07 4.4 39.8 75 0.3 32.6
23:00 1020 30.12 849 25.07 4.4 40 74 0.1 32.2
23:05 1020 30.12 849 25.07 4.5 40 74 0.2 32.4
23:10 1020 30.12 849 25.07 4.6 40.2 73 0.1 32.1
23:15 1020 30.12 849 25.07 4.7 40.4 74 0.4 32.6
23:20 1020 30.12 849 25.07 4.7 40.4 73 0.3 32.5
23:25 1020 30.12 849 25.07 4.7 40.5 74 0.4 32.8
23:30 1020 30.12 849 25.07 4.6 40.3 74 0.5 32.8
23:35 1020 30.12 849 25.07 4.7 40.4 73 0.2 32.4
23:40 1020 30.12 849 25.07 4.7 40.5 73 0.3 32.5
23:45 1020 30.12 850 25.1 4.7 40.5 73 0.4 32.6
23:50 1020 30.12 850 25.1 4.9 40.9 74 0.6 33.1
23:55 1021 30.15 850 25.1 5 41 73 0.5 33
24:00 1021 30.15 850 25.1 5 41 72 0.4 32.7